sensor_id;sensor_type;location;lat;lon;timestamp;P1;durP1;ratioP1;P2;durP2;ratioP2
44165;SDS011;30476;53.468;9.826;2023-04-03T00:00:29;3.90;;;1.30;;
44165;SDS011;30476;53.468;9.826;2023-04-03T00:02:55;3.97;;;1.47;;
44165;SDS011;30476;53.468;9.826;2023-04-03T00:05:21;1.73;;;1.20;;
44165;SDS011;30476;53.468;9.826;2023-04-03T00:07:47;1.67;;;1.23;;
44165;SDS011;30476;53.468;9.826;2023-04-03T00:10:14;3.77;;;1.27;;
44165;SDS011;30476;53.468;9.826;2023-04-03T00:12:41;1.60;;;1.30;;
44165;SDS011;30476;53.468;9.826;2023-04-03T00:15:07;3.13;;;1.17;;
44165;SDS011;30476;53.468;9.826;2023-04-03T00:17:34;3.77;;;1.40;;
44165;SDS011;30476;53.468;9.826;2023-04-03T00:20:00;2.90;;;1.20;;
44165;SDS011;30476;53.468;9.826;2023-04-03T00:22:26;4.63;;;1.73;;
44165;SDS011;30476;53.468;9.826;2023-04-03T00:24:54;2.60;;;1.30;;
44165;SDS011;30476;53.468;9.826;2023-04-03T00:27:20;2.57;;;2.07;;
44165;SDS011;30476;53.468;9.826;2023-04-03T00:29:45;2.40;;;1.40;;
44165;SDS011;30476;53.468;9.826;2023-04-03T00:32:11;1.70;;;1.40;;
44165;SDS011;30476;53.468;9.826;2023-04-03T00:34:37;3.60;;;1.20;;
44165;SDS011;30476;53.468;9.826;2023-04-03T00:37:03;4.13;;;1.40;;
44165;SDS011;30476;53.468;9.826;2023-04-03T00:39:29;2.90;;;1.23;;
44165;SDS011;30476;53.468;9.826;2023-04-03T00:41:55;3.57;;;1.53;;
44165;SDS011;30476;53.468;9.826;2023-04-03T00:46:58;2.97;;;1.40;;
44165;SDS011;30476;53.468;9.826;2023-04-03T00:49:25;3.13;;;1.83;;
44165;SDS011;30476;53.468;9.826;2023-04-03T00:51:52;1.70;;;1.50;;
44165;SDS011;30476;53.468;9.826;2023-04-03T00:54:19;5.47;;;2.60;;
44165;SDS011;30476;53.468;9.826;2023-04-03T00:56:44;2.20;;;1.63;;
44165;SDS011;30476;53.468;9.826;2023-04-03T00:59:26;2.70;;;1.63;;
44165;SDS011;30476;53.468;9.826;2023-04-03T01:01:58;1.67;;;1.43;;
44165;SDS011;30476;53.468;9.826;2023-04-03T01:04:29;4.90;;;1.80;;
44165;SDS011;30476;53.468;9.826;2023-04-03T01:06:57;2.30;;;1.50;;
44165;SDS011;30476;53.468;9.826;2023-04-03T01:09:48;3.77;;;2.07;;
44165;SDS011;30476;53.468;9.826;2023-04-03T01:12:25;3.07;;;1.77;;
44165;SDS011;30476;53.468;9.826;2023-04-03T01:14:56;3.37;;;1.77;;
44165;SDS011;30476;53.468;9.826;2023-04-03T01:17:30;3.17;;;1.50;;
44165;SDS011;30476;53.468;9.826;2023-04-03T01:25:40;3.10;;;1.50;;
44165;SDS011;30476;53.468;9.826;2023-04-03T01:28:11;6.13;;;1.97;;
44165;SDS011;30476;53.468;9.826;2023-04-03T01:30:45;3.33;;;1.53;;
44165;SDS011;30476;53.468;9.826;2023-04-03T01:33:16;2.70;;;1.60;;
44165;SDS011;30476;53.468;9.826;2023-04-03T01:35:42;1.73;;;1.43;;
44165;SDS011;30476;53.468;9.826;2023-04-03T01:38:07;2.87;;;1.50;;
44165;SDS011;30476;53.468;9.826;2023-04-03T01:40:33;2.83;;;1.70;;
44165;SDS011;30476;53.468;9.826;2023-04-03T01:42:59;3.27;;;1.87;;
44165;SDS011;30476;53.468;9.826;2023-04-03T01:45:25;2.33;;;1.70;;
44165;SDS011;30476;53.468;9.826;2023-04-03T01:47:51;2.80;;;1.70;;
44165;SDS011;30476;53.468;9.826;2023-04-03T01:50:16;2.47;;;1.83;;
44165;SDS011;30476;53.468;9.826;2023-04-03T01:52:42;1.57;;;1.47;;
44165;SDS011;30476;53.468;9.826;2023-04-03T01:55:08;2.30;;;1.37;;
44165;SDS011;30476;53.468;9.826;2023-04-03T01:57:34;4.03;;;1.63;;
44165;SDS011;30476;53.468;9.826;2023-04-03T02:00:00;4.20;;;1.30;;
44165;SDS011;30476;53.468;9.826;2023-04-03T02:02:25;2.37;;;1.50;;
44165;SDS011;30476;53.468;9.826;2023-04-03T02:04:51;4.20;;;1.83;;
44165;SDS011;30476;53.468;9.826;2023-04-03T02:07:17;3.40;;;2.13;;
44165;SDS011;30476;53.468;9.826;2023-04-03T02:09:43;2.97;;;1.97;;
44165;SDS011;30476;53.468;9.826;2023-04-03T02:12:08;2.90;;;1.80;;
44165;SDS011;30476;53.468;9.826;2023-04-03T02:14:34;2.20;;;1.60;;
44165;SDS011;30476;53.468;9.826;2023-04-03T02:17:00;5.23;;;1.77;;
44165;SDS011;30476;53.468;9.826;2023-04-03T02:19:30;2.20;;;1.50;;
44165;SDS011;30476;53.468;9.826;2023-04-03T02:21:57;3.83;;;1.60;;
44165;SDS011;30476;53.468;9.826;2023-04-03T02:24:22;4.67;;;1.70;;
44165;SDS011;30476;53.468;9.826;2023-04-03T02:26:48;2.80;;;1.70;;
44165;SDS011;30476;53.468;9.826;2023-04-03T02:29:14;3.90;;;1.80;;
44165;SDS011;30476;53.468;9.826;2023-04-03T02:31:39;2.23;;;1.50;;
44165;SDS011;30476;53.468;9.826;2023-04-03T02:34:05;3.37;;;1.73;;
44165;SDS011;30476;53.468;9.826;2023-04-03T02:36:31;2.00;;;1.63;;
44165;SDS011;30476;53.468;9.826;2023-04-03T02:38:57;4.80;;;1.50;;
44165;SDS011;30476;53.468;9.826;2023-04-03T02:41:22;5.10;;;1.50;;
44165;SDS011;30476;53.468;9.826;2023-04-03T02:43:50;2.63;;;1.50;;
44165;SDS011;30476;53.468;9.826;2023-04-03T02:46:16;2.57;;;1.80;;
44165;SDS011;30476;53.468;9.826;2023-04-03T02:48:42;5.00;;;1.60;;
44165;SDS011;30476;53.468;9.826;2023-04-03T02:51:07;2.83;;;1.70;;
44165;SDS011;30476;53.468;9.826;2023-04-03T02:53:33;4.27;;;1.87;;
44165;SDS011;30476;53.468;9.826;2023-04-03T02:55:59;3.30;;;1.60;;
44165;SDS011;30476;53.468;9.826;2023-04-03T02:58:25;1.80;;;1.53;;
44165;SDS011;30476;53.468;9.826;2023-04-03T03:00:50;3.20;;;2.00;;
44165;SDS011;30476;53.468;9.826;2023-04-03T03:03:16;8.67;;;1.60;;
44165;SDS011;30476;53.468;9.826;2023-04-03T03:05:43;3.13;;;1.83;;
44165;SDS011;30476;53.468;9.826;2023-04-03T03:08:08;2.60;;;1.63;;
44165;SDS011;30476;53.468;9.826;2023-04-03T03:10:34;4.60;;;1.87;;
44165;SDS011;30476;53.468;9.826;2023-04-03T03:13:00;2.37;;;1.80;;
44165;SDS011;30476;53.468;9.826;2023-04-03T03:15:26;6.80;;;2.07;;
44165;SDS011;30476;53.468;9.826;2023-04-03T03:17:52;1.80;;;1.60;;
44165;SDS011;30476;53.468;9.826;2023-04-03T03:20:17;4.93;;;2.00;;
44165;SDS011;30476;53.468;9.826;2023-04-03T03:22:43;4.30;;;1.43;;
44165;SDS011;30476;53.468;9.826;2023-04-03T03:25:09;4.57;;;1.53;;
44165;SDS011;30476;53.468;9.826;2023-04-03T03:27:35;1.87;;;1.70;;
44165;SDS011;30476;53.468;9.826;2023-04-03T03:30:01;2.40;;;1.60;;
44165;SDS011;30476;53.468;9.826;2023-04-03T03:32:26;2.40;;;1.53;;
44165;SDS011;30476;53.468;9.826;2023-04-03T03:34:52;1.50;;;1.20;;
44165;SDS011;30476;53.468;9.826;2023-04-03T03:37:18;3.63;;;2.10;;
44165;SDS011;30476;53.468;9.826;2023-04-03T03:39:44;2.43;;;1.40;;
44165;SDS011;30476;53.468;9.826;2023-04-03T03:42:09;1.60;;;1.40;;
44165;SDS011;30476;53.468;9.826;2023-04-03T03:44:36;4.17;;;1.30;;
44165;SDS011;30476;53.468;9.826;2023-04-03T03:47:02;5.03;;;2.40;;
44165;SDS011;30476;53.468;9.826;2023-04-03T03:49:28;3.30;;;1.30;;
44165;SDS011;30476;53.468;9.826;2023-04-03T03:51:54;2.97;;;1.23;;
44165;SDS011;30476;53.468;9.826;2023-04-03T03:54:20;4.80;;;2.10;;
44165;SDS011;30476;53.468;9.826;2023-04-03T03:56:46;3.57;;;1.37;;
44165;SDS011;30476;53.468;9.826;2023-04-03T03:59:12;3.27;;;1.23;;
44165;SDS011;30476;53.468;9.826;2023-04-03T04:01:37;2.83;;;1.50;;
44165;SDS011;30476;53.468;9.826;2023-04-03T04:04:03;1.67;;;1.20;;
44165;SDS011;30476;53.468;9.826;2023-04-03T04:06:29;3.00;;;1.50;;
44165;SDS011;30476;53.468;9.826;2023-04-03T04:08:55;1.33;;;1.23;;
44165;SDS011;30476;53.468;9.826;2023-04-03T04:11:21;2.63;;;1.80;;
44165;SDS011;30476;53.468;9.826;2023-04-03T04:13:47;2.43;;;1.30;;
44165;SDS011;30476;53.468;9.826;2023-04-03T04:16:12;2.40;;;1.07;;
44165;SDS011;30476;53.468;9.826;2023-04-03T04:18:38;1.40;;;1.30;;
44165;SDS011;30476;53.468;9.826;2023-04-03T04:21:04;5.43;;;1.37;;
44165;SDS011;30476;53.468;9.826;2023-04-03T04:23:30;1.60;;;1.27;;
44165;SDS011;30476;53.468;9.826;2023-04-03T04:25:56;3.50;;;1.37;;
44165;SDS011;30476;53.468;9.826;2023-04-03T04:28:22;2.77;;;1.40;;
44165;SDS011;30476;53.468;9.826;2023-04-03T04:30:47;1.87;;;1.37;;
44165;SDS011;30476;53.468;9.826;2023-04-03T04:33:13;1.90;;;1.33;;
44165;SDS011;30476;53.468;9.826;2023-04-03T04:35:41;2.50;;;1.33;;
44165;SDS011;30476;53.468;9.826;2023-04-03T04:38:08;3.87;;;1.20;;
44165;SDS011;30476;53.468;9.826;2023-04-03T04:40:33;2.53;;;1.10;;
44165;SDS011;30476;53.468;9.826;2023-04-03T04:42:59;5.43;;;1.50;;
44165;SDS011;30476;53.468;9.826;2023-04-03T04:45:25;9.03;;;8.23;;
44165;SDS011;30476;53.468;9.826;2023-04-03T04:47:51;5.30;;;2.00;;
44165;SDS011;30476;53.468;9.826;2023-04-03T04:50:18;2.37;;;1.70;;
44165;SDS011;30476;53.468;9.826;2023-04-03T04:52:44;2.23;;;1.50;;
44165;SDS011;30476;53.468;9.826;2023-04-03T04:55:09;2.53;;;1.20;;
44165;SDS011;30476;53.468;9.826;2023-04-03T04:57:35;2.73;;;1.33;;
44165;SDS011;30476;53.468;9.826;2023-04-03T05:00:02;5.03;;;1.47;;
44165;SDS011;30476;53.468;9.826;2023-04-03T05:02:28;4.60;;;1.67;;
44165;SDS011;30476;53.468;9.826;2023-04-03T05:04:54;7.00;;;1.10;;
44165;SDS011;30476;53.468;9.826;2023-04-03T05:07:20;2.83;;;1.40;;
44165;SDS011;30476;53.468;9.826;2023-04-03T05:09:45;3.00;;;1.40;;
44165;SDS011;30476;53.468;9.826;2023-04-03T05:12:11;2.37;;;1.33;;
44165;SDS011;30476;53.468;9.826;2023-04-03T05:14:37;2.60;;;1.30;;
44165;SDS011;30476;53.468;9.826;2023-04-03T05:17:03;1.50;;;1.40;;
44165;SDS011;30476;53.468;9.826;2023-04-03T05:19:28;3.77;;;1.30;;
44165;SDS011;30476;53.468;9.826;2023-04-03T05:21:54;5.23;;;1.30;;
44165;SDS011;30476;53.468;9.826;2023-04-03T05:24:20;1.87;;;1.20;;
44165;SDS011;30476;53.468;9.826;2023-04-03T05:26:46;2.00;;;1.60;;
44165;SDS011;30476;53.468;9.826;2023-04-03T05:29:11;4.13;;;1.77;;
44165;SDS011;30476;53.468;9.826;2023-04-03T05:31:37;1.60;;;1.50;;
44165;SDS011;30476;53.468;9.826;2023-04-03T05:34:03;3.40;;;1.30;;
44165;SDS011;30476;53.468;9.826;2023-04-03T05:36:29;3.53;;;1.30;;
44165;SDS011;30476;53.468;9.826;2023-04-03T05:38:55;5.13;;;2.60;;
44165;SDS011;30476;53.468;9.826;2023-04-03T05:41:21;3.27;;;1.60;;
44165;SDS011;30476;53.468;9.826;2023-04-03T05:43:47;3.03;;;1.43;;
44165;SDS011;30476;53.468;9.826;2023-04-03T05:46:17;2.87;;;1.23;;
44165;SDS011;30476;53.468;9.826;2023-04-03T05:48:45;5.23;;;2.40;;
44165;SDS011;30476;53.468;9.826;2023-04-03T05:51:18;13.60;;;7.40;;
44165;SDS011;30476;53.468;9.826;2023-04-03T05:53:46;9.27;;;5.17;;
44165;SDS011;30476;53.468;9.826;2023-04-03T05:56:13;3.47;;;3.17;;
44165;SDS011;30476;53.468;9.826;2023-04-03T05:58:39;4.90;;;2.13;;
44165;SDS011;30476;53.468;9.826;2023-04-03T06:01:05;2.07;;;1.90;;
44165;SDS011;30476;53.468;9.826;2023-04-03T06:03:31;3.43;;;1.33;;
44165;SDS011;30476;53.468;9.826;2023-04-03T06:05:57;6.17;;;1.70;;
44165;SDS011;30476;53.468;9.826;2023-04-03T06:08:22;2.33;;;1.50;;
44165;SDS011;30476;53.468;9.826;2023-04-03T06:10:49;1.80;;;1.50;;
44165;SDS011;30476;53.468;9.826;2023-04-03T06:13:16;2.33;;;1.57;;
44165;SDS011;30476;53.468;9.826;2023-04-03T06:15:42;3.93;;;1.60;;
44165;SDS011;30476;53.468;9.826;2023-04-03T06:18:08;4.43;;;2.17;;
44165;SDS011;30476;53.468;9.826;2023-04-03T06:20:33;4.70;;;1.60;;
44165;SDS011;30476;53.468;9.826;2023-04-03T06:22:59;2.43;;;1.77;;
44165;SDS011;30476;53.468;9.826;2023-04-03T06:25:25;3.87;;;1.97;;
44165;SDS011;30476;53.468;9.826;2023-04-03T06:27:51;2.30;;;1.77;;
44165;SDS011;30476;53.468;9.826;2023-04-03T06:30:17;5.63;;;1.97;;
44165;SDS011;30476;53.468;9.826;2023-04-03T06:32:43;4.07;;;2.10;;
44165;SDS011;30476;53.468;9.826;2023-04-03T06:35:09;4.43;;;2.17;;
44165;SDS011;30476;53.468;9.826;2023-04-03T06:37:35;3.93;;;2.63;;
44165;SDS011;30476;53.468;9.826;2023-04-03T06:40:01;5.80;;;3.30;;
44165;SDS011;30476;53.468;9.826;2023-04-03T06:42:28;7.70;;;4.70;;
44165;SDS011;30476;53.468;9.826;2023-04-03T06:44:54;9.37;;;5.07;;
44165;SDS011;30476;53.468;9.826;2023-04-03T06:47:19;8.20;;;7.40;;
44165;SDS011;30476;53.468;9.826;2023-04-03T06:49:45;8.53;;;7.43;;
44165;SDS011;30476;53.468;9.826;2023-04-03T06:52:11;9.97;;;5.13;;
44165;SDS011;30476;53.468;9.826;2023-04-03T06:54:38;8.60;;;5.50;;
44165;SDS011;30476;53.468;9.826;2023-04-03T06:57:05;7.63;;;5.40;;
44165;SDS011;30476;53.468;9.826;2023-04-03T06:59:31;6.83;;;4.60;;
44165;SDS011;30476;53.468;9.826;2023-04-03T07:01:57;13.20;;;5.03;;
44165;SDS011;30476;53.468;9.826;2023-04-03T07:04:24;7.67;;;3.67;;
44165;SDS011;30476;53.468;9.826;2023-04-03T07:06:50;4.70;;;3.60;;
44165;SDS011;30476;53.468;9.826;2023-04-03T07:09:17;6.50;;;4.40;;
44165;SDS011;30476;53.468;9.826;2023-04-03T07:11:43;6.87;;;3.80;;
44165;SDS011;30476;53.468;9.826;2023-04-03T07:14:09;6.10;;;4.17;;
44165;SDS011;30476;53.468;9.826;2023-04-03T07:16:35;6.60;;;3.50;;
44165;SDS011;30476;53.468;9.826;2023-04-03T07:19:01;4.63;;;3.43;;
44165;SDS011;30476;53.468;9.826;2023-04-03T07:21:28;8.03;;;4.30;;
44165;SDS011;30476;53.468;9.826;2023-04-03T07:23:54;10.30;;;4.83;;
44165;SDS011;30476;53.468;9.826;2023-04-03T07:26:20;5.40;;;3.00;;
44165;SDS011;30476;53.468;9.826;2023-04-03T07:28:47;3.17;;;2.80;;
44165;SDS011;30476;53.468;9.826;2023-04-03T07:31:14;4.63;;;3.03;;
44165;SDS011;30476;53.468;9.826;2023-04-03T07:33:42;4.40;;;3.40;;
44165;SDS011;30476;53.468;9.826;2023-04-03T07:36:08;3.67;;;3.20;;
44165;SDS011;30476;53.468;9.826;2023-04-03T07:38:35;6.37;;;3.27;;
44165;SDS011;30476;53.468;9.826;2023-04-03T07:41:01;7.40;;;3.10;;
44165;SDS011;30476;53.468;9.826;2023-04-03T07:43:28;3.80;;;2.80;;
44165;SDS011;30476;53.468;9.826;2023-04-03T07:45:54;2.97;;;2.50;;
44165;SDS011;30476;53.468;9.826;2023-04-03T07:48:23;3.50;;;2.00;;
44165;SDS011;30476;53.468;9.826;2023-04-03T07:50:50;3.00;;;1.80;;
44165;SDS011;30476;53.468;9.826;2023-04-03T07:53:17;4.10;;;1.83;;
44165;SDS011;30476;53.468;9.826;2023-04-03T07:55:46;5.13;;;1.80;;
44165;SDS011;30476;53.468;9.826;2023-04-03T07:58:14;2.07;;;1.40;;
44165;SDS011;30476;53.468;9.826;2023-04-03T08:00:42;5.37;;;1.53;;
44165;SDS011;30476;53.468;9.826;2023-04-03T08:03:09;1.90;;;1.10;;
44165;SDS011;30476;53.468;9.826;2023-04-03T08:05:36;3.33;;;1.30;;
44165;SDS011;30476;53.468;9.826;2023-04-03T08:08:04;1.60;;;1.23;;
44165;SDS011;30476;53.468;9.826;2023-04-03T08:10:31;3.17;;;1.33;;
44165;SDS011;30476;53.468;9.826;2023-04-03T08:12:57;2.90;;;1.20;;
44165;SDS011;30476;53.468;9.826;2023-04-03T08:15:22;4.63;;;1.40;;
44165;SDS011;30476;53.468;9.826;2023-04-03T08:17:49;1.93;;;1.40;;
44165;SDS011;30476;53.468;9.826;2023-04-03T08:20:15;2.77;;;1.30;;
44165;SDS011;30476;53.468;9.826;2023-04-03T08:22:41;1.40;;;1.10;;
44165;SDS011;30476;53.468;9.826;2023-04-03T08:25:07;1.90;;;1.80;;
44165;SDS011;30476;53.468;9.826;2023-04-03T08:27:33;3.63;;;1.20;;
44165;SDS011;30476;53.468;9.826;2023-04-03T08:29:59;1.63;;;1.10;;
44165;SDS011;30476;53.468;9.826;2023-04-03T08:32:25;4.13;;;1.07;;
44165;SDS011;30476;53.468;9.826;2023-04-03T08:34:51;1.40;;;1.10;;
44165;SDS011;30476;53.468;9.826;2023-04-03T08:37:17;2.03;;;1.10;;
44165;SDS011;30476;53.468;9.826;2023-04-03T08:39:43;1.83;;;1.30;;
44165;SDS011;30476;53.468;9.826;2023-04-03T08:42:16;2.70;;;1.20;;
44165;SDS011;30476;53.468;9.826;2023-04-03T08:45:05;1.30;;;1.00;;
44165;SDS011;30476;53.468;9.826;2023-04-03T08:47:52;3.53;;;1.30;;
44165;SDS011;30476;53.468;9.826;2023-04-03T08:50:29;2.47;;;0.80;;
44165;SDS011;30476;53.468;9.826;2023-04-03T08:52:58;3.00;;;0.87;;
44165;SDS011;30476;53.468;9.826;2023-04-03T08:55:45;1.27;;;1.10;;
44165;SDS011;30476;53.468;9.826;2023-04-03T08:58:13;3.07;;;1.10;;
44165;SDS011;30476;53.468;9.826;2023-04-03T09:00:52;3.40;;;1.00;;
44165;SDS011;30476;53.468;9.826;2023-04-03T09:03:23;1.40;;;1.30;;
44165;SDS011;30476;53.468;9.826;2023-04-03T09:06:05;1.30;;;0.90;;
44165;SDS011;30476;53.468;9.826;2023-04-03T09:14:12;2.10;;;1.17;;
44165;SDS011;30476;53.468;9.826;2023-04-03T09:16:56;1.80;;;1.50;;
44165;SDS011;30476;53.468;9.826;2023-04-03T09:22:07;3.03;;;1.10;;
44165;SDS011;30476;53.468;9.826;2023-04-03T09:24:59;1.90;;;0.80;;
44165;SDS011;30476;53.468;9.826;2023-04-03T09:27:31;0.97;;;0.87;;
44165;SDS011;30476;53.468;9.826;2023-04-03T09:29:56;1.67;;;1.00;;
44165;SDS011;30476;53.468;9.826;2023-04-03T09:32:26;3.63;;;0.90;;
44165;SDS011;30476;53.468;9.826;2023-04-03T09:34:54;1.03;;;0.80;;
44165;SDS011;30476;53.468;9.826;2023-04-03T09:37:41;3.43;;;0.90;;
44165;SDS011;30476;53.468;9.826;2023-04-03T09:42:56;1.10;;;0.90;;
44165;SDS011;30476;53.468;9.826;2023-04-03T09:48:08;2.37;;;0.90;;
44165;SDS011;30476;53.468;9.826;2023-04-03T09:50:34;2.13;;;1.00;;
44165;SDS011;30476;53.468;9.826;2023-04-03T09:53:05;1.80;;;0.87;;
44165;SDS011;30476;53.468;9.826;2023-04-03T09:55:49;2.00;;;1.10;;
44165;SDS011;30476;53.468;9.826;2023-04-03T09:58:28;2.87;;;1.00;;
44165;SDS011;30476;53.468;9.826;2023-04-03T10:00:57;2.03;;;1.00;;
44165;SDS011;30476;53.468;9.826;2023-04-03T10:03:25;2.00;;;1.83;;
44165;SDS011;30476;53.468;9.826;2023-04-03T10:06:02;1.00;;;0.90;;
44165;SDS011;30476;53.468;9.826;2023-04-03T10:08:30;2.83;;;1.00;;
44165;SDS011;30476;53.468;9.826;2023-04-03T10:11:16;1.20;;;0.90;;
44165;SDS011;30476;53.468;9.826;2023-04-03T10:13:50;1.00;;;0.77;;
44165;SDS011;30476;53.468;9.826;2023-04-03T10:16:20;1.83;;;1.73;;
44165;SDS011;30476;53.468;9.826;2023-04-03T10:19:05;2.83;;;1.00;;
44165;SDS011;30476;53.468;9.826;2023-04-03T10:21:48;4.43;;;1.07;;
44165;SDS011;30476;53.468;9.826;2023-04-03T10:27:39;1.50;;;0.80;;
44165;SDS011;30476;53.468;9.826;2023-04-03T10:29:55;0.87;;;0.80;;
44165;SDS011;30476;53.468;9.826;2023-04-03T10:35:31;1.53;;;0.90;;
44165;SDS011;30476;53.468;9.826;2023-04-03T10:38:23;1.83;;;0.80;;
44165;SDS011;30476;53.468;9.826;2023-04-03T10:47:07;1.47;;;1.10;;
44165;SDS011;30476;53.468;9.826;2023-04-03T10:52:23;1.17;;;0.90;;
44165;SDS011;30476;53.468;9.826;2023-04-03T10:55:03;2.43;;;0.90;;
44165;SDS011;30476;53.468;9.826;2023-04-03T10:57:45;0.90;;;0.73;;
44165;SDS011;30476;53.468;9.826;2023-04-03T11:00:16;0.90;;;0.80;;
44165;SDS011;30476;53.468;9.826;2023-04-03T11:02:54;0.80;;;0.80;;
44165;SDS011;30476;53.468;9.826;2023-04-03T11:05:31;1.23;;;0.87;;
44165;SDS011;30476;53.468;9.826;2023-04-03T11:08:17;1.13;;;0.70;;
44165;SDS011;30476;53.468;9.826;2023-04-03T11:10:51;1.13;;;1.00;;
44165;SDS011;30476;53.468;9.826;2023-04-03T11:13:31;0.80;;;0.80;;
44165;SDS011;30476;53.468;9.826;2023-04-03T11:16:00;1.10;;;1.00;;
44165;SDS011;30476;53.468;9.826;2023-04-03T11:18:32;0.60;;;0.60;;
44165;SDS011;30476;53.468;9.826;2023-04-03T11:23:40;2.07;;;0.90;;
44165;SDS011;30476;53.468;9.826;2023-04-03T11:26:11;3.13;;;0.90;;
44165;SDS011;30476;53.468;9.826;2023-04-03T11:28:38;2.60;;;1.00;;
44165;SDS011;30476;53.468;9.826;2023-04-03T11:34:11;1.50;;;0.70;;
44165;SDS011;30476;53.468;9.826;2023-04-03T11:36:54;1.27;;;0.70;;
44165;SDS011;30476;53.468;9.826;2023-04-03T11:39:34;1.30;;;1.20;;
44165;SDS011;30476;53.468;9.826;2023-04-03T11:45:15;0.70;;;0.70;;
44165;SDS011;30476;53.468;9.826;2023-04-03T11:47:58;0.70;;;0.70;;
44165;SDS011;30476;53.468;9.826;2023-04-03T11:50:47;0.90;;;0.80;;
44165;SDS011;30476;53.468;9.826;2023-04-03T11:58:22;1.63;;;1.07;;
44165;SDS011;30476;53.468;9.826;2023-04-03T12:05:54;1.33;;;0.93;;
44165;SDS011;30476;53.468;9.826;2023-04-03T12:08:29;1.07;;;0.80;;
44165;SDS011;30476;53.468;9.826;2023-04-03T12:13:37;2.50;;;1.73;;
44165;SDS011;30476;53.468;9.826;2023-04-03T12:16:04;1.10;;;1.00;;
44165;SDS011;30476;53.468;9.826;2023-04-03T12:26:41;1.67;;;1.30;;
44165;SDS011;30476;53.468;9.826;2023-04-03T12:40:53;2.70;;;0.90;;
44165;SDS011;30476;53.468;9.826;2023-04-03T12:46:09;2.27;;;1.10;;
44165;SDS011;30476;53.468;9.826;2023-04-03T12:51:09;1.57;;;0.80;;
44165;SDS011;30476;53.468;9.826;2023-04-03T12:53:40;3.60;;;0.93;;
44165;SDS011;30476;53.468;9.826;2023-04-03T12:56:24;1.23;;;0.90;;
44165;SDS011;30476;53.468;9.826;2023-04-03T12:58:53;1.80;;;0.93;;
44165;SDS011;30476;53.468;9.826;2023-04-03T13:01:21;1.80;;;0.90;;
44165;SDS011;30476;53.468;9.826;2023-04-03T13:03:52;1.23;;;0.80;;
44165;SDS011;30476;53.468;9.826;2023-04-03T13:06:24;1.40;;;0.90;;
44165;SDS011;30476;53.468;9.826;2023-04-03T13:08:58;1.43;;;0.83;;
44165;SDS011;30476;53.468;9.826;2023-04-03T13:11:26;1.17;;;1.00;;
44165;SDS011;30476;53.468;9.826;2023-04-03T13:14:00;2.10;;;0.90;;
44165;SDS011;30476;53.468;9.826;2023-04-03T13:16:28;3.63;;;1.00;;
44165;SDS011;30476;53.468;9.826;2023-04-03T13:18:55;2.30;;;0.93;;
44165;SDS011;30476;53.468;9.826;2023-04-03T13:21:22;1.03;;;0.93;;
44165;SDS011;30476;53.468;9.826;2023-04-03T13:23:58;1.00;;;0.90;;
44165;SDS011;30476;53.468;9.826;2023-04-03T13:26:27;1.03;;;0.90;;
44165;SDS011;30476;53.468;9.826;2023-04-03T13:28:57;2.10;;;0.90;;
44165;SDS011;30476;53.468;9.826;2023-04-03T13:31:45;0.80;;;0.70;;
44165;SDS011;30476;53.468;9.826;2023-04-03T13:34:12;4.87;;;1.10;;
44165;SDS011;30476;53.468;9.826;2023-04-03T13:41:43;2.90;;;0.80;;
44165;SDS011;30476;53.468;9.826;2023-04-03T13:46:53;2.40;;;0.80;;
44165;SDS011;30476;53.468;9.826;2023-04-03T13:49:22;1.17;;;1.10;;
44165;SDS011;30476;53.468;9.826;2023-04-03T13:51:48;2.53;;;0.83;;
44165;SDS011;30476;53.468;9.826;2023-04-03T13:54:32;2.40;;;1.00;;
44165;SDS011;30476;53.468;9.826;2023-04-03T13:57:03;1.57;;;1.10;;
44165;SDS011;30476;53.468;9.826;2023-04-03T13:59:36;1.80;;;1.00;;
44165;SDS011;30476;53.468;9.826;2023-04-03T14:04:51;2.73;;;1.00;;
44165;SDS011;30476;53.468;9.826;2023-04-03T14:07:25;1.53;;;1.00;;
44165;SDS011;30476;53.468;9.826;2023-04-03T14:09:52;2.63;;;0.93;;
44165;SDS011;30476;53.468;9.826;2023-04-03T14:12:26;1.50;;;0.70;;
44165;SDS011;30476;53.468;9.826;2023-04-03T14:14:56;0.80;;;0.80;;
44165;SDS011;30476;53.468;9.826;2023-04-03T14:17:23;1.00;;;0.93;;
44165;SDS011;30476;53.468;9.826;2023-04-03T14:19:52;1.40;;;0.80;;
44165;SDS011;30476;53.468;9.826;2023-04-03T14:22:21;2.30;;;1.00;;
44165;SDS011;30476;53.468;9.826;2023-04-03T14:24:50;1.20;;;0.90;;
44165;SDS011;30476;53.468;9.826;2023-04-03T14:29:59;12.93;;;9.70;;
44165;SDS011;30476;53.468;9.826;2023-04-03T14:32:25;2.73;;;2.37;;
44165;SDS011;30476;53.468;9.826;2023-04-03T14:34:52;3.50;;;2.63;;
44165;SDS011;30476;53.468;9.826;2023-04-03T14:37:21;2.30;;;2.10;;
44165;SDS011;30476;53.468;9.826;2023-04-03T14:39:49;9.47;;;8.67;;
44165;SDS011;30476;53.468;9.826;2023-04-03T14:42:17;4.83;;;3.27;;
44165;SDS011;30476;53.468;9.826;2023-04-03T14:44:45;1.90;;;1.53;;
44165;SDS011;30476;53.468;9.826;2023-04-03T14:47:12;1.40;;;1.13;;
44165;SDS011;30476;53.468;9.826;2023-04-03T14:49:40;3.77;;;3.47;;
44165;SDS011;30476;53.468;9.826;2023-04-03T14:52:10;2.00;;;1.73;;
44165;SDS011;30476;53.468;9.826;2023-04-03T14:54:43;8.00;;;7.33;;
44165;SDS011;30476;53.468;9.826;2023-04-03T14:57:09;9.40;;;8.30;;
44165;SDS011;30476;53.468;9.826;2023-04-03T14:59:38;6.63;;;6.03;;
44165;SDS011;30476;53.468;9.826;2023-04-03T15:02:15;6.93;;;5.60;;
44165;SDS011;30476;53.468;9.826;2023-04-03T15:04:51;5.03;;;2.83;;
44165;SDS011;30476;53.468;9.826;2023-04-03T15:07:18;1.90;;;1.50;;
44165;SDS011;30476;53.468;9.826;2023-04-03T15:09:44;1.17;;;1.07;;
44165;SDS011;30476;53.468;9.826;2023-04-03T15:12:10;1.83;;;0.90;;
44165;SDS011;30476;53.468;9.826;2023-04-03T15:14:36;2.60;;;0.83;;
44165;SDS011;30476;53.468;9.826;2023-04-03T15:17:02;2.83;;;0.83;;
44165;SDS011;30476;53.468;9.826;2023-04-03T15:19:30;1.57;;;0.70;;
44165;SDS011;30476;53.468;9.826;2023-04-03T15:22:02;1.00;;;0.90;;
44165;SDS011;30476;53.468;9.826;2023-04-03T15:24:27;1.10;;;0.90;;
44165;SDS011;30476;53.468;9.826;2023-04-03T15:26:53;1.20;;;1.10;;
44165;SDS011;30476;53.468;9.826;2023-04-03T15:29:19;0.70;;;0.70;;
44165;SDS011;30476;53.468;9.826;2023-04-03T15:31:45;1.00;;;0.90;;
44165;SDS011;30476;53.468;9.826;2023-04-03T15:34:11;1.53;;;0.80;;
44165;SDS011;30476;53.468;9.826;2023-04-03T15:36:36;1.03;;;0.93;;
44165;SDS011;30476;53.468;9.826;2023-04-03T15:39:02;2.03;;;1.40;;
44165;SDS011;30476;53.468;9.826;2023-04-03T15:41:28;1.43;;;1.20;;
44165;SDS011;30476;53.468;9.826;2023-04-03T15:43:54;1.00;;;0.90;;
44165;SDS011;30476;53.468;9.826;2023-04-03T15:46:20;1.37;;;1.00;;
44165;SDS011;30476;53.468;9.826;2023-04-03T15:48:45;2.90;;;0.80;;
44165;SDS011;30476;53.468;9.826;2023-04-03T15:51:11;1.07;;;0.97;;
44165;SDS011;30476;53.468;9.826;2023-04-03T15:53:37;1.20;;;0.90;;
44165;SDS011;30476;53.468;9.826;2023-04-03T15:56:03;1.50;;;0.87;;
44165;SDS011;30476;53.468;9.826;2023-04-03T15:58:29;1.23;;;0.80;;
44165;SDS011;30476;53.468;9.826;2023-04-03T16:00:55;2.57;;;0.97;;
44165;SDS011;30476;53.468;9.826;2023-04-03T16:03:21;0.70;;;0.70;;
44165;SDS011;30476;53.468;9.826;2023-04-03T16:05:49;1.57;;;0.90;;
44165;SDS011;30476;53.468;9.826;2023-04-03T16:08:15;1.47;;;0.93;;
44165;SDS011;30476;53.468;9.826;2023-04-03T16:10:43;2.60;;;0.90;;
44165;SDS011;30476;53.468;9.826;2023-04-03T16:13:11;1.53;;;1.20;;
44165;SDS011;30476;53.468;9.826;2023-04-03T16:15:36;3.37;;;1.00;;
44165;SDS011;30476;53.468;9.826;2023-04-03T16:18:03;1.00;;;0.90;;
44165;SDS011;30476;53.468;9.826;2023-04-03T16:20:29;1.17;;;0.80;;
44165;SDS011;30476;53.468;9.826;2023-04-03T16:22:56;1.20;;;0.67;;
44165;SDS011;30476;53.468;9.826;2023-04-03T16:25:24;1.40;;;0.80;;
44165;SDS011;30476;53.468;9.826;2023-04-03T16:27:49;2.60;;;0.80;;
44165;SDS011;30476;53.468;9.826;2023-04-03T16:30:15;1.87;;;1.07;;
44165;SDS011;30476;53.468;9.826;2023-04-03T16:32:41;1.53;;;0.90;;